Time;durP1;ratioP1;P1;durP2;ratioP2;P2;SDS_P1;SDS_P2;PMS_P1;PMS_P2;Temp;Humidity;BMP_temperature;BMP_pressure;BME280_temperature;BME280_humidity;BME280_pressure;Samples;Min_cycle;Max_cycle;Signal;HPM_P1;HPM_P2
2022/10/17 00:02:02;;;;;;;21.02;5.60;;;;;;;;;;5009638;28;20458;-69
2022/10/17 00:04:28;;;;;;;18.02;6.18;;;;;;;;;;5009671;28;20064;-68
2022/10/17 00:06:54;;;;;;;18.42;5.55;;;;;;;;;;5009871;28;20046;-68
2022/10/17 00:09:20;;;;;;;20.63;5.88;;;;;;;;;;5024695;28;20404;-68
2022/10/17 00:11:46;;;;;;;20.42;5.40;;;;;;;;;;5009914;28;20046;-68
2022/10/17 00:14:12;;;;;;;18.60;5.47;;;;;;;;;;5009538;28;20046;-69
2022/10/17 00:16:39;;;;;;;18.50;6.10;;;;;;;;;;5009738;28;20443;-70
2022/10/17 00:19:06;;;;;;;23.20;6.88;;;;;;;;;;5024421;28;20152;-69
2022/10/17 00:21:32;;;;;;;25.50;9.15;;;;;;;;;;5009600;28;20128;-70
2022/10/17 00:23:59;;;;;;;31.13;13.25;;;;;;;;;;4991649;28;20057;-70
2022/10/17 00:26:26;;;;;;;29.80;16.70;;;;;;;;;;5009560;28;20073;-69
2022/10/17 00:28:53;;;;;;;31.00;17.73;;;;;;;;;;5009400;28;20120;-70
2022/10/17 00:31:20;;;;;;;32.55;17.88;;;;;;;;;;5009772;28;20121;-72
2022/10/17 00:33:46;;;;;;;32.33;16.27;;;;;;;;;;5009437;28;20101;-69
2022/10/17 00:36:14;;;;;;;27.65;13.93;;;;;;;;;;5009992;28;20573;-70
2022/10/17 00:38:41;;;;;;;24.13;12.38;;;;;;;;;;5013481;28;20342;-74
2022/10/17 00:41:08;;;;;;;21.55;11.30;;;;;;;;;;5013109;28;20102;-74
2022/10/17 00:43:50;;;;;;;27.98;12.05;;;;;;;;;;5013452;28;20234;-74
2022/10/17 00:46:16;;;;;;;26.98;11.55;;;;;;;;;;5013050;28;20072;-72
2022/10/17 00:48:42;;;;;;;26.73;11.82;;;;;;;;;;5013344;28;20046;-72
2022/10/17 00:51:08;;;;;;;28.55;12.95;;;;;;;;;;5013209;28;20037;-71
2022/10/17 00:53:36;;;;;;;30.67;13.07;;;;;;;;;;5013061;28;20248;-69
2022/10/17 00:56:02;;;;;;;24.23;11.80;;;;;;;;;;4995446;28;20422;-74
2022/10/17 00:58:28;;;;;;;27.02;12.23;;;;;;;;;;5012666;28;20467;-74
2022/10/17 01:00:54;;;;;;;29.15;13.15;;;;;;;;;;5028053;28;20477;-74
2022/10/17 01:03:20;;;;;;;25.05;12.55;;;;;;;;;;5012567;28;20505;-70
2022/10/17 01:05:46;;;;;;;22.15;11.43;;;;;;;;;;5012708;28;20431;-71
2022/10/17 01:08:12;;;;;;;24.77;11.57;;;;;;;;;;5012643;28;20042;-75
2022/10/17 01:10:50;;;;;;;24.45;11.13;;;;;;;;;;5012804;28;20459;-81
2022/10/17 01:13:22;;;;;;;26.80;10.93;;;;;;;;;;5012212;28;20478;-72
2022/10/17 01:16:06;;;;;;;22.30;10.07;;;;;;;;;;5012602;28;20066;-77
2022/10/17 01:18:39;;;;;;;19.52;9.52;;;;;;;;;;5012262;28;20077;-72
2022/10/17 01:21:11;;;;;;;23.50;9.38;;;;;;;;;;5012516;28;20145;-76
2022/10/17 01:23:49;;;;;;;20.55;8.68;;;;;;;;;;5027494;28;20366;-71
2022/10/17 01:26:34;;;;;;;20.67;8.55;;;;;;;;;;5027192;28;20141;-78
2022/10/17 01:29:00;;;;;;;22.73;8.32;;;;;;;;;;5012435;28;20123;-76
2022/10/17 01:31:31;;;;;;;23.10;9.20;;;;;;;;;;5012475;28;20054;-75
2022/10/17 01:34:03;;;;;;;18.42;8.73;;;;;;;;;;5012398;28;20076;-72
2022/10/17 01:36:32;;;;;;;21.55;8.60;;;;;;;;;;5012158;28;20129;-70
2022/10/17 01:39:07;;;;;;;20.33;8.48;;;;;;;;;;5027203;28;20098;-74
2022/10/17 01:41:42;;;;;;;18.13;7.50;;;;;;;;;;5011821;28;20539;-68
2022/10/17 01:44:27;;;;;;;16.05;7.93;;;;;;;;;;5011999;28;20458;-71
2022/10/17 01:47:00;;;;;;;20.15;8.32;;;;;;;;;;5011840;28;20482;-67
2022/10/17 01:49:28;;;;;;;21.85;7.70;;;;;;;;;;5012384;28;20050;-72
2022/10/17 01:51:56;;;;;;;17.63;8.30;;;;;;;;;;5012291;28;20116;-69
2022/10/17 01:54:32;;;;;;;22.25;8.63;;;;;;;;;;5011680;28;20351;-72
2022/10/17 01:57:01;;;;;;;20.75;8.50;;;;;;;;;;5012005;28;20324;-72
2022/10/17 01:59:31;;;;;;;19.02;8.90;;;;;;;;;;5011734;28;20088;-74
2022/10/17 02:01:58;;;;;;;17.08;8.80;;;;;;;;;;4994407;28;20493;-75
2022/10/17 02:04:24;;;;;;;22.77;8.90;;;;;;;;;;5011841;28;20140;-69
2022/10/17 02:06:51;;;;;;;16.25;8.57;;;;;;;;;;5026942;28;20057;-68
2022/10/17 02:09:18;;;;;;;18.23;7.82;;;;;;;;;;4994514;28;20141;-68
2022/10/17 02:11:50;;;;;;;19.42;8.95;;;;;;;;;;5011601;28;20042;-71
2022/10/17 02:14:16;;;;;;;17.92;7.85;;;;;;;;;;5012030;28;20050;-72
2022/10/17 02:17:08;;;;;;;16.20;7.55;;;;;;;;;;5026533;28;20478;-71
2022/10/17 02:19:46;;;;;;;21.88;8.27;;;;;;;;;;5011464;28;20102;-72
2022/10/17 02:22:19;;;;;;;20.17;8.23;;;;;;;;;;5011638;28;20054;-71
2022/10/17 02:24:51;;;;;;;19.67;8.63;;;;;;;;;;5011838;28;20049;-76
2022/10/17 02:27:20;;;;;;;20.23;8.32;;;;;;;;;;5011309;28;20466;-71
2022/10/17 02:29:56;;;;;;;16.85;8.88;;;;;;;;;;5011270;28;20042;-75
2022/10/17 02:32:34;;;;;;;18.23;8.93;;;;;;;;;;5026324;28;20529;-73
2022/10/17 02:35:01;;;;;;;17.50;9.00;;;;;;;;;;5026512;28;20042;-73
2022/10/17 02:37:28;;;;;;;19.80;8.70;;;;;;;;;;5011154;28;20050;-70
2022/10/17 02:39:55;;;;;;;18.70;8.60;;;;;;;;;;5011230;28;20044;-71
2022/10/17 02:42:22;;;;;;;20.92;8.65;;;;;;;;;;5011277;28;20136;-77
2022/10/17 02:44:48;;;;;;;18.45;9.38;;;;;;;;;;5010924;28;20449;-72
2022/10/17 02:47:28;;;;;;;18.50;9.30;;;;;;;;;;5011266;28;20057;-74
2022/10/17 02:49:55;;;;;;;18.58;9.25;;;;;;;;;;5010889;28;20061;-72
2022/10/17 02:52:43;;;;;;;19.10;9.45;;;;;;;;;;5011008;28;20128;-72
2022/10/17 02:55:22;;;;;;;16.75;8.82;;;;;;;;;;5011150;28;20046;-74
2022/10/17 02:57:56;;;;;;;20.83;9.48;;;;;;;;;;5010860;28;20148;-74
2022/10/17 03:00:24;;;;;;;17.10;9.77;;;;;;;;;;5010573;28;20037;-74
2022/10/17 03:02:51;;;;;;;18.23;9.80;;;;;;;;;;5010907;28;20058;-71
2022/10/17 03:05:19;;;;;;;18.23;10.20;;;;;;;;;;5010574;28;20057;-72
2022/10/17 03:07:46;;;;;;;19.27;10.18;;;;;;;;;;5010812;28;20068;-78
2022/10/17 03:10:12;;;;;;;;;;;;;;;;;;4993416;28;20505;-74
2022/10/17 03:12:38;;;;;;;18.80;10.93;;;;;;;;;;5010235;28;19925;-78
2022/10/17 03:15:04;;;;;;;;;;;;;;;;;;5010934;28;20491;-75
2022/10/17 03:17:30;;;;;;;18.45;10.60;;;;;;;;;;5025531;28;19979;-74
2022/10/17 03:19:56;;;;;;;20.23;10.68;;;;;;;;;;5010832;28;20300;-76
2022/10/17 03:22:22;;;;;;;22.38;10.75;;;;;;;;;;5010596;28;20054;-81
2022/10/17 03:24:48;;;;;;;16.67;10.93;;;;;;;;;;5011437;28;20064;-80
2022/10/17 03:27:14;;;;;;;20.95;12.13;;;;;;;;;;5011092;28;20049;-76
2022/10/17 03:29:40;;;;;;;19.90;11.55;;;;;;;;;;5026793;28;20038;-74
2022/10/17 03:32:06;;;;;;;18.83;11.25;;;;;;;;;;5018651;28;20049;-77
2022/10/17 03:34:32;;;;;;;20.30;11.68;;;;;;;;;;5020097;28;20135;-76
2022/10/17 03:36:58;;;;;;;22.13;12.13;;;;;;;;;;5018936;28;20084;-78
2022/10/17 03:39:24;;;;;;;20.08;12.38;;;;;;;;;;5019802;28;20049;-71
2022/10/17 03:41:50;;;;;;;20.08;12.45;;;;;;;;;;5035380;28;20537;-73
2022/10/17 03:44:17;;;;;;;18.30;12.48;;;;;;;;;;4994879;28;20104;-79
2022/10/17 03:46:43;;;;;;;19.67;12.50;;;;;;;;;;5010839;28;20136;-79
2022/10/17 03:49:09;;;;;;;18.88;12.40;;;;;;;;;;5010254;28;20049;-75
2022/10/17 03:51:35;;;;;;;;;;;;;;;;;;5010410;28;20068;-72
2022/10/17 03:54:01;;;;;;;23.30;13.10;;;;;;;;;;5010090;28;19921;-76
2022/10/17 03:56:27;;;;;;;19.98;13.15;;;;;;;;;;5009644;28;20430;-71
2022/10/17 03:58:54;;;;;;;18.88;13.38;;;;;;;;;;5009582;28;20085;-77
2022/10/17 04:01:21;;;;;;;23.15;13.40;;;;;;;;;;5009850;28;20144;-78
2022/10/17 04:03:54;;;;;;;21.45;14.00;;;;;;;;;;5009470;28;20573;-80
2022/10/17 04:06:20;;;;;;;23.65;14.25;;;;;;;;;;5009978;28;20331;-80
2022/10/17 04:08:46;;;;;;;22.92;14.82;;;;;;;;;;5024698;28;20088;-79
2022/10/17 04:11:17;;;;;;;21.70;14.48;;;;;;;;;;5010572;28;20097;-77
2022/10/17 04:13:44;;;;;;;24.77;14.82;;;;;;;;;;5014060;28;20050;-74
2022/10/17 04:16:14;;;;;;;22.13;15.48;;;;;;;;;;5014072;28;20129;-74
2022/10/17 04:18:41;;;;;;;19.58;14.02;;;;;;;;;;5013446;28;20453;-74
2022/10/17 04:21:07;;;;;;;21.80;15.68;;;;;;;;;;5013464;28;20046;-75
2022/10/17 04:23:33;;;;;;;23.92;15.23;;;;;;;;;;5013407;28;20048;-75
2022/10/17 04:26:02;;;;;;;21.85;14.73;;;;;;;;;;5013290;28;20474;-80
2022/10/17 04:28:29;;;;;;;24.25;15.93;;;;;;;;;;5013076;28;20537;-72
2022/10/17 04:31:02;;;;;;;22.77;15.25;;;;;;;;;;5013575;28;20053;-73
2022/10/17 04:33:28;;;;;;;22.13;16.38;;;;;;;;;;5013671;28;20144;-72
2022/10/17 04:36:06;;;;;;;22.80;15.43;;;;;;;;;;5015181;28;20057;-76
2022/10/17 04:38:32;;;;;;;24.17;16.10;;;;;;;;;;5029548;28;20117;-78
2022/10/17 04:41:02;;;;;;;23.63;16.80;;;;;;;;;;5028594;28;20042;-76
2022/10/17 04:43:28;;;;;;;25.33;16.33;;;;;;;;;;5013626;28;20056;-73
2022/10/17 04:45:54;;;;;;;;;;;;;;;;;;5013658;28;20058;-73
2022/10/17 04:48:20;;;;;;;23.38;16.92;;;;;;;;;;5012868;28;19946;-78
2022/10/17 04:50:53;;;;;;;24.55;17.75;;;;;;;;;;5013012;28;20351;-70
2022/10/17 04:53:20;;;;;;;25.20;17.65;;;;;;;;;;5013077;28;20121;-73
2022/10/17 04:55:46;;;;;;;27.02;18.58;;;;;;;;;;5013091;28;20089;-78
2022/10/17 04:58:12;;;;;;;24.73;17.92;;;;;;;;;;5013389;28;20509;-76
2022/10/17 05:00:38;;;;;;;26.13;16.85;;;;;;;;;;5012714;28;20060;-76
2022/10/17 05:03:04;;;;;;;25.05;18.27;;;;;;;;;;5013273;28;20129;-75
2022/10/17 05:05:30;;;;;;;25.77;18.65;;;;;;;;;;5013071;28;20093;-75
2022/10/17 05:07:56;;;;;;;27.80;18.27;;;;;;;;;;5013060;28;20419;-85
2022/10/17 05:10:23;;;;;;;23.13;17.30;;;;;;;;;;4995047;28;20049;-78
2022/10/17 05:12:49;;;;;;;25.13;18.40;;;;;;;;;;5012874;28;20057;-76
2022/10/17 05:15:15;;;;;;;25.42;18.38;;;;;;;;;;5013083;28;20046;-76
2022/10/17 05:17:41;;;;;;;26.55;18.67;;;;;;;;;;5012664;28;20049;-75
2022/10/17 05:20:08;;;;;;;26.90;19.08;;;;;;;;;;5012739;28;20061;-73
2022/10/17 05:22:34;;;;;;;26.58;18.02;;;;;;;;;;5012445;28;20057;-74
2022/10/17 05:25:00;;;;;;;27.67;20.40;;;;;;;;;;5012736;28;20155;-74
2022/10/17 05:27:26;;;;;;;27.63;20.17;;;;;;;;;;5013063;28;20049;-72
2022/10/17 05:29:52;;;;;;;28.60;19.40;;;;;;;;;;5013358;28;20061;-76
2022/10/17 05:32:19;;;;;;;26.50;19.17;;;;;;;;;;5012929;28;20161;-76
2022/10/17 05:34:45;;;;;;;26.58;20.13;;;;;;;;;;4996377;28;20160;-75
2022/10/17 05:37:11;;;;;;;32.47;20.13;;;;;;;;;;5013009;28;20385;-75
2022/10/17 05:39:37;;;;;;;28.35;21.58;;;;;;;;;;5012273;28;20050;-75
2022/10/17 05:42:03;;;;;;;29.75;20.70;;;;;;;;;;5012077;28;20474;-75
2022/10/17 05:44:29;;;;;;;27.98;20.38;;;;;;;;;;5027562;28;20134;-75
2022/10/17 05:46:55;;;;;;;32.30;20.38;;;;;;;;;;5012189;28;20046;-75
2022/10/17 05:49:21;;;;;;;29.10;21.00;;;;;;;;;;5012676;28;20128;-77
2022/10/17 05:51:47;;;;;;;30.90;22.25;;;;;;;;;;5012483;28;20045;-76
2022/10/17 05:54:13;;;;;;;30.58;21.63;;;;;;;;;;5011914;28;20465;-74
2022/10/17 05:56:39;;;;;;;30.05;21.70;;;;;;;;;;5012266;28;20060;-77
2022/10/17 05:59:05;;;;;;;34.40;22.65;;;;;;;;;;5012149;28;20482;-75
2022/10/17 06:01:31;;;;;;;29.60;20.60;;;;;;;;;;5011954;28;20038;-74
2022/10/17 06:03:57;;;;;;;33.00;22.27;;;;;;;;;;5011807;28;20050;-76
2022/10/17 06:06:23;;;;;;;34.80;22.60;;;;;;;;;;5012131;28;20057;-75
2022/10/17 06:08:49;;;;;;;31.60;22.60;;;;;;;;;;5011955;28;20100;-74
2022/10/17 06:11:15;;;;;;;32.80;22.17;;;;;;;;;;5011771;28;20422;-72
2022/10/17 06:13:42;;;;;;;30.77;23.23;;;;;;;;;;5011708;28;20038;-74
2022/10/17 06:16:08;;;;;;;36.03;23.55;;;;;;;;;;4994314;28;20041;-75
2022/10/17 06:18:34;;;;;;;34.85;23.75;;;;;;;;;;5026214;28;20347;-80
2022/10/17 06:21:04;;;;;;;31.83;23.30;;;;;;;;;;5011013;28;20128;-75
2022/10/17 06:23:30;;;;;;;33.50;22.85;;;;;;;;;;5011188;28;20124;-76
2022/10/17 06:26:00;;;;;;;32.17;22.88;;;;;;;;;;5010556;28;20101;-72
2022/10/17 06:28:26;;;;;;;36.20;24.13;;;;;;;;;;5010836;28;20148;-74
2022/10/17 06:30:52;;;;;;;31.63;23.25;;;;;;;;;;5025816;28;20215;-73
2022/10/17 06:33:19;;;;;;;32.95;23.00;;;;;;;;;;5010472;28;20046;-75
2022/10/17 06:35:50;;;;;;;31.73;22.75;;;;;;;;;;5010486;28;20076;-75
2022/10/17 06:38:16;;;;;;;32.85;23.65;;;;;;;;;;5011054;28;20054;-77
2022/10/17 06:40:42;;;;;;;31.52;22.13;;;;;;;;;;5010322;28;20045;-75
2022/10/17 06:43:08;;;;;;;31.63;22.90;;;;;;;;;;5010572;28;20046;-74
2022/10/17 06:45:34;;;;;;;37.47;23.30;;;;;;;;;;5010570;28;20128;-77
2022/10/17 06:48:02;;;;;;;33.10;24.23;;;;;;;;;;5025551;28;20050;-75
2022/10/17 06:50:28;;;;;;;33.25;22.88;;;;;;;;;;5010392;28;20213;-79
2022/10/17 06:52:54;;;;;;;32.85;22.27;;;;;;;;;;5010414;28;20383;-79
2022/10/17 06:55:23;;;;;;;33.50;22.88;;;;;;;;;;5010000;28;20379;-75
2022/10/17 06:57:50;;;;;;;34.22;23.15;;;;;;;;;;5010310;28;20069;-77
2022/10/17 07:00:16;;;;;;;29.33;21.88;;;;;;;;;;5010278;28;20046;-76
2022/10/17 07:02:43;;;;;;;32.03;22.58;;;;;;;;;;5009907;28;20041;-74
2022/10/17 07:05:09;;;;;;;;;;;;;;;;;;5011361;28;20094;-76
2022/10/17 07:07:35;;;;;;;32.42;22.55;;;;;;;;;;5009995;28;20031;-75
2022/10/17 07:10:02;;;;;;;32.75;22.13;;;;;;;;;;5010207;28;20195;-76
2022/10/17 07:12:28;;;;;;;35.17;22.80;;;;;;;;;;5025125;28;20053;-74
2022/10/17 07:14:54;;;;;;;34.17;23.13;;;;;;;;;;5010132;28;20053;-75
2022/10/17 07:17:20;;;;;;;33.45;22.63;;;;;;;;;;5009894;28;20076;-73
2022/10/17 07:19:47;;;;;;;36.38;21.15;;;;;;;;;;5007475;28;20386;-73
2022/10/17 07:22:13;;;;;;;31.30;22.40;;;;;;;;;;4992463;28;20049;-73
2022/10/17 07:24:39;;;;;;;32.35;21.67;;;;;;;;;;5025028;28;20120;-72
2022/10/17 07:27:05;;;;;;;34.10;21.73;;;;;;;;;;5009898;28;20094;-72
2022/10/17 07:29:31;;;;;;;35.08;22.05;;;;;;;;;;5010026;28;20054;-75
2022/10/17 07:31:57;;;;;;;34.85;21.75;;;;;;;;;;5009949;28;20134;-75
2022/10/17 07:34:29;;;;;;;33.58;21.95;;;;;;;;;;5009767;28;20046;-75
2022/10/17 07:36:55;;;;;;;30.80;20.83;;;;;;;;;;5009823;28;20125;-76
2022/10/17 07:39:22;;;;;;;29.55;20.92;;;;;;;;;;5009369;28;20494;-77
2022/10/17 07:41:49;;;;;;;32.80;20.50;;;;;;;;;;5024697;28;20106;-75
2022/10/17 07:44:15;;;;;;;29.63;19.80;;;;;;;;;;5009444;28;20145;-77
2022/10/17 07:46:41;;;;;;;;;;;;;;;;;;5010220;28;20041;-75
2022/10/17 07:49:07;;;;;;;30.80;21.13;;;;;;;;;;5009602;28;20297;-71
2022/10/17 07:51:33;;;;;;;28.30;20.98;;;;;;;;;;5009803;28;20129;-75
2022/10/17 07:53:59;;;;;;;29.25;20.10;;;;;;;;;;5009396;28;20045;-79
2022/10/17 07:56:26;;;;;;;29.23;20.38;;;;;;;;;;5008892;28;20159;-77
2022/10/17 07:58:52;;;;;;;27.55;18.48;;;;;;;;;;5024140;28;20046;-75
2022/10/17 08:01:18;;;;;;;28.40;19.40;;;;;;;;;;5009198;28;20108;-81
2022/10/17 08:03:45;;;;;;;32.28;19.52;;;;;;;;;;5009599;28;20145;-79
2022/10/17 08:06:12;;;;;;;25.98;18.58;;;;;;;;;;5024977;28;20062;-71
2022/10/17 08:08:38;;;;;;;29.35;18.75;;;;;;;;;;5009518;28;20050;-75
2022/10/17 08:11:06;;;;;;;28.00;18.05;;;;;;;;;;5009424;28;20129;-81
2022/10/17 08:13:32;;;;;;;29.83;19.17;;;;;;;;;;5009347;28;20069;-77
2022/10/17 08:15:59;;;;;;;29.30;18.38;;;;;;;;;;5007531;28;20452;-75
2022/10/17 08:18:25;;;;;;;27.20;17.38;;;;;;;;;;5009216;28;20153;-81
2022/10/17 08:20:51;;;;;;;25.13;16.25;;;;;;;;;;5009396;28;20427;-84
2022/10/17 08:23:17;;;;;;;24.90;16.85;;;;;;;;;;5009199;28;20517;-79
2022/10/17 08:25:43;;;;;;;29.95;17.20;;;;;;;;;;5009451;28;20501;-81
2022/10/17 08:28:09;;;;;;;27.25;16.88;;;;;;;;;;5009112;28;20073;-75
2022/10/17 08:30:35;;;;;;;22.48;15.82;;;;;;;;;;5009022;28;20065;-80
2022/10/17 08:33:02;;;;;;;23.33;16.15;;;;;;;;;;5009301;28;20053;-76
2022/10/17 08:35:28;;;;;;;;;;;;;;;;;;5009617;28;20116;-79
2022/10/17 08:37:54;;;;;;;26.42;16.15;;;;;;;;;;5010557;28;19926;-77
2022/10/17 08:40:22;;;;;;;27.88;16.75;;;;;;;;;;5031775;28;20069;-78
2022/10/17 08:43:00;;;;;;;26.90;17.02;;;;;;;;;;5016940;28;20114;-80
2022/10/17 08:45:32;;;;;;;28.30;16.52;;;;;;;;;;5013369;28;20140;-77
2022/10/17 08:48:00;;;;;;;23.70;15.60;;;;;;;;;;5013624;28;20053;-77
2022/10/17 08:50:32;;;;;;;25.15;16.23;;;;;;;;;;5009651;28;20137;-77
2022/10/17 08:53:16;;;;;;;28.08;16.05;;;;;;;;;;5009265;28;20050;-77
2022/10/17 08:55:45;;;;;;;21.50;15.05;;;;;;;;;;5008945;28;20105;-78
2022/10/17 08:58:16;;;;;;;23.15;14.77;;;;;;;;;;5011989;28;20086;-74
2022/10/17 09:00:46;;;;;;;23.42;16.00;;;;;;;;;;5012346;28;20056;-78
2022/10/17 09:03:36;;;;;;;23.00;15.02;;;;;;;;;;5012308;28;20042;-78
2022/10/17 09:06:14;;;;;;;30.38;16.25;;;;;;;;;;4983791;28;20045;-75
2022/10/17 09:08:43;;;;;;;25.10;14.45;;;;;;;;;;5011565;28;20061;-73
2022/10/17 09:11:20;;;;;;;24.00;14.85;;;;;;;;;;5011793;28;20062;-72
2022/10/17 09:13:51;;;;;;;22.00;15.25;;;;;;;;;;5011892;28;20056;-71
2022/10/17 09:16:20;;;;;;;21.35;14.75;;;;;;;;;;5011355;28;20057;-73
2022/10/17 09:18:52;;;;;;;23.92;15.18;;;;;;;;;;5012077;28;20066;-72
2022/10/17 09:21:20;;;;;;;19.00;13.30;;;;;;;;;;5012060;28;20050;-70
2022/10/17 09:23:55;;;;;;;21.95;13.90;;;;;;;;;;5011967;28;20104;-65
2022/10/17 09:26:22;;;;;;;21.27;14.10;;;;;;;;;;5026612;28;20391;-70
2022/10/17 09:28:57;;;;;;;23.42;13.85;;;;;;;;;;5011372;28;20123;-68
2022/10/17 09:31:28;;;;;;;24.30;14.67;;;;;;;;;;5010569;28;20054;-68
2022/10/17 09:33:55;;;;;;;23.92;14.40;;;;;;;;;;5010185;28;20129;-73
2022/10/17 09:36:27;;;;;;;22.10;14.25;;;;;;;;;;5010588;28;20057;-68
2022/10/17 09:38:54;;;;;;;22.00;14.60;;;;;;;;;;5010589;28;20045;-67
2022/10/17 09:41:22;;;;;;;22.75;14.82;;;;;;;;;;5010218;28;20384;-69
2022/10/17 09:43:50;;;;;;;24.92;14.80;;;;;;;;;;5010182;28;20050;-67
2022/10/17 09:46:16;;;;;;;26.02;14.13;;;;;;;;;;5011727;28;20362;-66
2022/10/17 09:48:48;;;;;;;25.25;14.77;;;;;;;;;;5011068;28;20168;-67
2022/10/17 09:51:15;;;;;;;23.67;14.98;;;;;;;;;;5010945;28;20113;-70
2022/10/17 09:53:46;;;;;;;25.50;14.55;;;;;;;;;;5010533;28;20095;-68
2022/10/17 09:56:15;;;;;;;24.70;15.82;;;;;;;;;;5010284;28;20513;-69
2022/10/17 09:58:41;;;;;;;28.25;16.00;;;;;;;;;;5010800;28;20050;-79
2022/10/17 10:01:19;;;;;;;24.70;16.67;;;;;;;;;;5010741;28;20057;-75
2022/10/17 10:03:45;;;;;;;26.55;17.42;;;;;;;;;;5010554;28;20045;-78
2022/10/17 10:06:11;;;;;;;;;;;;;;;;;;5010419;28;20076;-74
2022/10/17 10:08:51;;;;;;;27.85;18.92;;;;;;;;;;5009432;28;19921;-71
2022/10/17 10:11:17;;;;;;;33.17;18.27;;;;;;;;;;5010904;28;20193;-72
2022/10/17 10:13:44;;;;;;;30.20;19.33;;;;;;;;;;5010702;28;20049;-79
2022/10/17 10:16:29;;;;;;;32.05;19.98;;;;;;;;;;5011240;28;20337;-90
2022/10/17 10:18:55;;;;;;;32.83;20.00;;;;;;;;;;5012271;28;20438;-72
2022/10/17 10:21:21;;;;;;;;;;;;;;;;;;4995373;28;20113;-76
2022/10/17 10:24:02;;;;;;;37.30;24.02;;;;;;;;;;5012002;28;20173;-82
2022/10/17 10:26:48;;;;;;;36.22;23.27;;;;;;;;;;5027194;28;20053;-83
2022/10/17 10:29:21;;;;;;;45.50;26.63;;;;;;;;;;5011199;28;20041;-84
2022/10/17 10:31:50;;;;;;;35.03;22.65;;;;;;;;;;5025886;28;20164;-81
2022/10/17 10:34:21;;;;;;;51.78;28.48;;;;;;;;;;5011063;28;20319;-80
2022/10/17 10:37:14;;;;;;;43.35;27.10;;;;;;;;;;5026132;28;20049;-78
2022/10/17 10:39:42;;;;;;;55.05;31.08;;;;;;;;;;4992764;28;20120;-77
2022/10/17 10:42:18;;;;;;;47.35;30.13;;;;;;;;;;5011082;28;20187;-77
2022/10/17 10:44:44;;;;;;;40.17;26.10;;;;;;;;;;5026025;28;20073;-79
2022/10/17 10:47:10;;;;;;;;;;;;;;;;;;5011086;28;20382;-79
2022/10/17 10:49:37;;;;;;;40.95;27.25;;;;;;;;;;5026329;28;19951;-78
2022/10/17 10:52:04;;;;;;;46.47;26.83;;;;;;;;;;5010854;28;20465;-78
2022/10/17 10:54:30;;;;;;;;;;;;;;;;;;5011442;28;20479;-80
2022/10/17 10:56:58;;;;;;;49.63;29.35;;;;;;;;;;5025747;28;19917;-82
2022/10/17 10:59:44;;;;;;;60.80;32.10;;;;;;;;;;5010713;28;20060;-78
2022/10/17 11:02:43;;;;;;;68.95;33.53;;;;;;;;;;5009333;28;20057;-74
2022/10/17 11:05:21;;;;;;;50.83;29.48;;;;;;;;;;4977204;28;20050;-75
2022/10/17 11:08:04;;;;;;;59.15;31.92;;;;;;;;;;5010704;28;20045;-74
2022/10/17 11:10:49;;;;;;;59.03;31.67;;;;;;;;;;5012423;28;20136;-81
2022/10/17 11:13:19;;;;;;;57.70;32.95;;;;;;;;;;5010952;28;20111;-74
2022/10/17 11:15:54;;;;;;;47.33;28.70;;;;;;;;;;5010624;28;20061;-76
2022/10/17 11:18:24;;;;;;;55.08;31.80;;;;;;;;;;5010414;28;20133;-75
2022/10/17 11:20:52;;;;;;;55.90;31.33;;;;;;;;;;4992114;28;20081;-75
2022/10/17 11:23:22;;;;;;;56.17;31.20;;;;;;;;;;5010479;28;20366;-74
2022/10/17 11:25:50;;;;;;;64.82;32.47;;;;;;;;;;5009694;28;20131;-76
2022/10/17 11:28:20;;;;;;;61.40;32.47;;;;;;;;;;5010051;28;20112;-76
2022/10/17 11:30:52;;;;;;;49.28;28.42;;;;;;;;;;5010321;28;20038;-76
2022/10/17 11:33:25;;;;;;;65.85;35.25;;;;;;;;;;5009357;28;20514;-81
2022/10/17 11:35:52;;;;;;;62.05;32.92;;;;;;;;;;4992042;28;20060;-75
2022/10/17 11:38:21;;;;;;;51.47;29.77;;;;;;;;;;5009437;28;20092;-77
2022/10/17 11:40:49;;;;;;;51.95;27.40;;;;;;;;;;5009472;28;20060;-79
2022/10/17 11:43:24;;;;;;;46.83;27.98;;;;;;;;;;5009931;28;20049;-78
2022/10/17 11:45:52;;;;;;;58.38;30.33;;;;;;;;;;4991849;28;20050;-77
2022/10/17 11:48:21;;;;;;;51.83;29.30;;;;;;;;;;5009669;28;20084;-81
2022/10/17 11:51:08;;;;;;;40.03;23.67;;;;;;;;;;5009858;28;20190;-76
2022/10/17 11:53:52;;;;;;;38.92;22.35;;;;;;;;;;5009684;28;20046;-83
2022/10/17 11:56:23;;;;;;;27.75;17.92;;;;;;;;;;5025560;28;20367;-80
2022/10/17 11:58:59;;;;;;;29.77;18.02;;;;;;;;;;4992910;28;20103;-77
2022/10/17 12:01:40;;;;;;;27.88;16.55;;;;;;;;;;4976286;28;20050;-79
2022/10/17 12:04:18;;;;;;;28.52;16.83;;;;;;;;;;5010184;28;20153;-76
2022/10/17 12:06:44;;;;;;;29.15;16.73;;;;;;;;;;5010051;28;20069;-86
2022/10/17 12:09:14;;;;;;;24.25;15.57;;;;;;;;;;5009828;28;20140;-80
2022/10/17 12:11:58;;;;;;;24.90;13.80;;;;;;;;;;5009929;28;20038;-76
2022/10/17 12:14:35;;;;;;;20.17;12.80;;;;;;;;;;5009917;28;20486;-77
2022/10/17 12:17:02;;;;;;;21.13;13.80;;;;;;;;;;5024818;28;20100;-76
2022/10/17 12:19:32;;;;;;;24.00;15.00;;;;;;;;;;5009415;28;20054;-78
2022/10/17 12:22:01;;;;;;;25.88;16.98;;;;;;;;;;5009555;28;20065;-76
2022/10/17 12:24:36;;;;;;;25.58;16.20;;;;;;;;;;5024705;28;20053;-79
2022/10/17 12:27:44;;;;;;;24.90;16.13;;;;;;;;;;5009880;28;20124;-83
2022/10/17 12:30:24;;;;;;;29.30;18.50;;;;;;;;;;4948692;29;20055;-85
2022/10/17 12:32:56;;;;;;;33.80;19.85;;;;;;;;;;4934113;29;20058;-76
2022/10/17 12:35:23;;;;;;;27.40;17.75;;;;;;;;;;4991043;28;20060;-80
2022/10/17 12:37:52;;;;;;;25.60;17.80;;;;;;;;;;5013302;28;20046;-78
2022/10/17 12:40:37;;;;;;;27.45;17.23;;;;;;;;;;5013406;28;20046;-74
2022/10/17 12:43:23;;;;;;;30.95;18.48;;;;;;;;;;5013079;28;20046;-79
2022/10/17 12:45:50;;;;;;;33.38;20.33;;;;;;;;;;5013026;28;20071;-77
2022/10/17 12:48:34;;;;;;;30.90;19.42;;;;;;;;;;5012857;28;20050;-78
2022/10/17 12:51:00;;;;;;;26.65;16.75;;;;;;;;;;5028488;28;20136;-79
2022/10/17 12:53:27;;;;;;;25.13;16.52;;;;;;;;;;4995754;28;20050;-78
2022/10/17 12:55:59;;;;;;;22.85;14.52;;;;;;;;;;5012710;28;20446;-79
2022/10/17 12:58:25;;;;;;;23.00;14.18;;;;;;;;;;5013349;28;20112;-81
2022/10/17 13:00:55;;;;;;;22.08;13.73;;;;;;;;;;5028740;28;20075;-78
2022/10/17 13:03:23;;;;;;;23.00;13.07;;;;;;;;;;5012949;28;20165;-79
2022/10/17 13:05:58;;;;;;;19.27;11.43;;;;;;;;;;5012594;28;20512;-79
2022/10/17 13:08:29;;;;;;;18.35;10.88;;;;;;;;;;5013004;28;20053;-80
2022/10/17 13:10:56;;;;;;;20.05;10.90;;;;;;;;;;5012902;28;20124;-79
2022/10/17 13:13:32;;;;;;;17.75;10.40;;;;;;;;;;5013135;28;20137;-76
2022/10/17 13:15:59;;;;;;;17.38;11.23;;;;;;;;;;5012333;28;20080;-79
2022/10/17 13:18:27;;;;;;;19.67;11.48;;;;;;;;;;5012460;28;20092;-75
2022/10/17 13:20:58;;;;;;;20.27;11.88;;;;;;;;;;5012661;28;20046;-82
2022/10/17 13:23:25;;;;;;;16.80;9.52;;;;;;;;;;5028155;28;20415;-82
2022/10/17 13:26:12;;;;;;;16.95;10.52;;;;;;;;;;5012972;28;20089;-85
2022/10/17 13:28:38;;;;;;;23.70;13.00;;;;;;;;;;5012741;28;20432;-72
2022/10/17 13:31:06;;;;;;;;;;;;;;;;;;5013152;28;20046;-76
2022/10/17 13:33:38;;;;;;;31.60;15.30;;;;;;;;;;5012649;28;20346;-77
2022/10/17 13:36:06;;;;;;;27.23;14.00;;;;;;;;;;5012667;28;20104;-73
2022/10/17 13:38:33;;;;;;;25.02;14.57;;;;;;;;;;5012802;28;20114;-72
2022/10/17 13:41:00;;;;;;;25.90;14.38;;;;;;;;;;5012371;28;20194;-73
2022/10/17 13:43:26;;;;;;;25.30;12.77;;;;;;;;;;5012591;28;20067;-78
2022/10/17 13:45:54;;;;;;;26.20;12.05;;;;;;;;;;5013144;28;20110;-81
2022/10/17 13:48:21;;;;;;;23.20;12.02;;;;;;;;;;4995765;28;20060;-76
2022/10/17 13:50:49;;;;;;;24.10;11.57;;;;;;;;;;5018856;28;20066;-81
2022/10/17 13:53:24;;;;;;;24.33;13.10;;;;;;;;;;5020799;28;20125;-79
2022/10/17 13:55:50;;;;;;;21.40;10.98;;;;;;;;;;5017317;28;20124;-80
2022/10/17 13:58:17;;;;;;;19.40;9.52;;;;;;;;;;5013996;28;20092;-79
2022/10/17 14:00:44;;;;;;;17.60;9.07;;;;;;;;;;5013001;28;20042;-79
2022/10/17 14:03:10;;;;;;;19.48;8.45;;;;;;;;;;5012681;28;20136;-78
2022/10/17 14:05:56;;;;;;;19.25;9.75;;;;;;;;;;5012556;28;20053;-79
2022/10/17 14:08:22;;;;;;;18.50;7.18;;;;;;;;;;5011970;28;20055;-79
2022/10/17 14:10:48;;;;;;;19.42;8.20;;;;;;;;;;5011960;28;20167;-82
2022/10/17 14:13:22;;;;;;;18.83;8.70;;;;;;;;;;5011824;28;20119;-82
2022/10/17 14:15:48;;;;;;;14.80;7.55;;;;;;;;;;5011728;28;20108;-81
2022/10/17 14:18:14;;;;;;;;;;;;;;;;;;5012157;28;20180;-83
2022/10/17 14:20:45;;;;;;;16.35;8.30;;;;;;;;;;5011883;28;20012;-83
2022/10/17 14:23:30;;;;;;;21.73;8.07;;;;;;;;;;5011510;28;20046;-79
2022/10/17 14:26:06;;;;;;;23.85;8.13;;;;;;;;;;5010192;28;20045;-82
2022/10/17 14:28:33;;;;;;;19.00;8.82;;;;;;;;;;5011270;28;20092;-83
2022/10/17 14:31:28;;;;;;;23.48;9.23;;;;;;;;;;5011314;28;20469;-81
2022/10/17 14:33:55;;;;;;;19.83;8.95;;;;;;;;;;4980773;28;20471;-79
2022/10/17 14:36:29;;;;;;;17.15;8.25;;;;;;;;;;5011333;28;20088;-85
2022/10/17 14:38:56;;;;;;;18.08;8.45;;;;;;;;;;5026396;28;20124;-84